.
WxDataArchive / Data Records for 2013-10-11
2013-10-10 October 2013 2013-10-12

Data Records for Friday, 11 October 2013

Time	Temp	Chill	HIndex	Humid	Dewpt	 Wind 	HiWind	WindDir	Rain 	Barom 
-----	----	-----	------	-----	-----	------	------	-------	-----	----- 
00:00	48.0	48.0	48.0	85	43.7	0	0	---	0.00	30.101 
00:05	47.9	47.9	47.9	85	43.6	0	0	---	0.00	30.101 
00:10	47.7	47.7	47.7	85	43.4	0	0	---	0.00	30.101 
00:15	47.6	47.6	47.6	86	43.6	0	0	---	0.00	30.100 
00:20	47.4	47.4	47.4	86	43.4	0	0	---	0.00	30.100 
00:25	47.3	47.3	47.3	86	43.3	0	0	---	0.00	30.100 
00:30	47.1	47.1	47.1	87	43.4	0	0	---	0.00	30.092 
00:35	47.1	47.1	47.1	87	43.4	0	0	---	0.00	30.092 
00:40	47.1	47.1	47.1	88	43.7	0	0	---	0.00	30.092 
00:45	47.0	47.0	47.0	88	43.6	0	0	---	0.00	30.089 
00:50	47.0	47.0	47.0	88	43.6	0	0	---	0.00	30.089 
00:55	47.0	47.0	47.0	89	43.9	0	0	---	0.00	30.089 
01:00	47.1	47.1	47.1	89	44.0	0	0	---	0.00	30.089 
01:05	47.3	47.3	47.3	89	44.2	0	0	---	0.00	30.089 
01:10	47.4	47.4	47.4	89	44.3	0	0	---	0.00	30.089 
01:15	47.4	47.4	47.4	90	44.6	0	0	---	0.00	30.090 
01:20	47.6	47.6	47.6	90	44.8	0	0	---	0.00	30.090 
01:25	47.6	47.6	47.6	90	44.8	0	0	---	0.00	30.090 
01:30	47.4	47.4	47.4	90	44.6	0	0	---	0.00	30.087 
01:35	47.4	47.4	47.4	90	44.6	0	0	---	0.00	30.087 
01:40	47.4	47.4	47.4	90	44.6	0	0	---	0.00	30.087 
01:45	47.3	47.3	47.3	90	44.5	0	0	---	0.00	30.086 
01:50	47.1	47.1	47.1	90	44.3	0	0	---	0.00	30.086 
01:55	47.1	47.1	47.1	90	44.3	0	0	---	0.00	30.086 
02:00	47.0	47.0	47.0	90	44.2	0	0	---	0.00	30.087 
02:05	46.8	46.8	46.8	91	44.3	0	0	---	0.00	30.087 
02:10	46.8	46.8	46.8	91	44.3	0	0	---	0.00	30.087 
02:15	46.7	46.7	46.7	91	44.2	0	0	---	0.00	30.087 
02:20	46.7	46.7	46.7	91	44.2	0	0	---	0.00	30.087 
02:25	46.5	46.5	46.5	91	44.0	0	0	---	0.00	30.087 
02:30	46.4	46.4	46.4	91	43.9	0	0	---	0.00	30.087 
02:35	46.2	46.2	46.2	91	43.7	0	0	---	0.00	30.087 
02:40	46.1	46.1	46.1	91	43.6	0	0	---	0.00	30.087 
02:45	46.1	46.1	46.1	91	43.6	0	0	---	0.00	30.089 
02:50	46.0	46.0	46.0	91	43.5	0	0	---	0.00	30.089 
02:55	46.0	46.0	46.0	91	43.5	0	0	---	0.00	30.089 
03:00	45.8	45.8	45.8	91	43.3	0	0	---	0.00	30.088 
03:05	45.8	45.8	45.8	92	43.6	0	0	---	0.00	30.088 
03:10	45.8	45.8	45.8	92	43.6	0	0	---	0.00	30.088 
03:15	45.7	45.7	45.7	92	43.5	0	0	---	0.00	30.083 
03:20	45.5	45.5	45.5	92	43.3	0	0	---	0.00	30.083 
03:25	45.5	45.5	45.5	92	43.3	0	0	---	0.00	30.083 
03:30	45.5	45.5	45.5	92	43.3	0	0	---	0.00	30.078 
03:35	45.4	45.4	45.4	92	43.2	0	0	---	0.00	30.078 
03:40	45.2	45.2	45.2	92	43.0	0	0	---	0.00	30.078 
03:45	45.2	45.2	45.2	92	43.0	0	0	---	0.00	30.074 
03:50	45.1	45.1	45.1	92	42.9	0	0	---	0.00	30.074 
03:55	45.1	45.1	45.1	92	42.9	0	0	---	0.00	30.074 
04:00	45.1	45.1	45.1	92	42.9	0	0	---	0.00	30.075 
04:05	44.9	44.9	44.9	92	42.7	0	0	---	0.00	30.075 
04:10	44.9	44.9	44.9	92	42.7	0	0	---	0.00	30.075 
04:15	44.8	44.8	44.8	92	42.6	0	0	---	0.00	30.079 
04:20	44.8	44.8	44.8	93	42.9	0	0	---	0.00	30.079 
04:25	44.6	44.6	44.6	93	42.7	0	0	---	0.00	30.079 
04:30	44.6	44.6	44.6	93	42.7	0	0	---	0.00	30.076 
04:35	44.5	44.5	44.5	93	42.6	0	0	---	0.00	30.076 
04:40	44.3	44.3	44.3	93	42.4	0	0	---	0.00	30.076 
04:45	44.3	44.3	44.3	93	42.4	0	0	---	0.00	30.078 
04:50	44.3	44.3	44.3	93	42.4	0	0	---	0.00	30.078 
04:55	44.2	44.2	44.2	93	42.3	0	0	---	0.00	30.078 
05:00	44.1	44.1	44.1	93	42.2	0	0	---	0.00	30.076 
05:05	44.1	44.1	44.1	93	42.2	0	0	---	0.00	30.076 
05:10	44.1	44.1	44.1	93	42.2	0	0	---	0.00	30.076 
05:15	44.1	44.1	44.1	93	42.2	0	0	---	0.00	30.079 
05:20	43.9	43.9	43.9	93	42.0	0	0	---	0.00	30.079 
05:25	43.8	43.8	43.8	93	41.9	0	0	---	0.00	30.079 
05:30	43.8	43.8	43.8	93	41.9	0	0	---	0.00	30.086 
05:35	43.6	43.6	43.6	93	41.7	0	0	---	0.00	30.086 
05:40	43.6	43.6	43.6	93	41.7	0	0	---	0.00	30.086 
05:45	43.6	43.6	43.6	93	41.7	0	0	---	0.00	30.089 
05:50	43.6	43.6	43.6	93	41.7	0	0	---	0.00	30.089 
05:55	43.5	43.5	43.5	93	41.6	0	0	---	0.00	30.089 
06:00	43.5	43.5	43.5	94	41.9	0	0	---	0.00	30.088 
06:05	43.5	43.5	43.5	94	41.9	0	0	---	0.00	30.088 
06:10	43.3	43.3	43.3	94	41.7	0	0	---	0.00	30.088 
06:15	43.3	43.3	43.3	94	41.7	0	0	---	0.00	30.093 
06:20	43.2	43.2	43.2	94	41.6	0	0	---	0.00	30.093 
06:25	43.2	43.2	43.2	94	41.6	0	0	---	0.00	30.093 
06:30	43.1	43.1	43.1	94	41.5	0	0	---	0.00	30.095 
06:35	43.1	43.1	43.1	94	41.5	0	0	---	0.00	30.095 
06:40	43.1	43.1	43.1	94	41.5	0	0	---	0.00	30.095 
06:45	43.1	43.1	43.1	94	41.5	0	0	---	0.00	30.097 
06:50	42.9	42.9	42.9	94	41.3	0	0	---	0.00	30.097 
06:55	42.9	42.9	42.9	94	41.3	0	0	---	0.00	30.097 
07:00	42.9	42.9	42.9	94	41.3	0	0	---	0.00	30.103 
07:05	42.9	42.9	42.9	94	41.3	0	0	---	0.00	30.103 
07:10	42.9	42.9	42.9	94	41.3	0	0	---	0.00	30.103 
07:15	43.1	43.1	43.1	94	41.5	0	0	---	0.00	30.113 
07:20	43.2	43.2	43.2	94	41.6	0	0	---	0.00	30.113 
07:25	43.2	43.2	43.2	94	41.6	0	0	---	0.00	30.113 
07:30	43.3	43.3	43.3	94	41.7	0	0	---	0.00	30.116 
07:35	43.3	43.3	43.3	94	41.7	0	0	---	0.00	30.116 
07:40	43.5	43.5	43.5	95	42.2	0	0	---	0.00	30.116 
07:45	43.5	43.5	43.5	95	42.2	0	0	---	0.00	30.115 
07:50	43.5	43.5	43.5	95	42.2	0	0	---	0.00	30.115 
07:55	43.6	43.6	43.6	95	42.3	0	0	---	0.00	30.115 
08:00	43.5	43.5	43.5	95	42.2	0	0	---	0.00	30.118 
08:05	43.5	43.5	43.5	95	42.2	0	0	---	0.00	30.118 
08:10	43.5	43.5	43.5	95	42.2	0	0	---	0.00	30.118 
08:15	43.6	43.6	43.6	95	42.3	0	0	---	0.00	30.125 
08:20	43.9	43.9	43.9	95	42.6	0	0	---	0.00	30.125 
08:25	44.1	44.1	44.1	95	42.8	0	0	---	0.00	30.125 
08:30	44.2	44.2	44.2	95	42.9	0	0	---	0.00	30.128 
08:35	44.3	44.3	44.3	95	43.0	0	0	---	0.00	30.128 
08:40	44.6	44.6	44.6	95	43.3	0	0	---	0.00	30.128 
08:45	44.9	44.9	44.9	95	43.6	0	0	---	0.00	30.129 
08:50	45.4	45.4	45.4	95	44.1	0	0	---	0.00	30.129 
08:55	46.0	46.0	46.0	96	44.9	0	0	---	0.00	30.129 
09:00	46.5	46.5	46.5	96	45.4	0	0	---	0.00	30.129 
09:05	47.3	47.3	47.3	96	46.2	0	1	90	0.00	30.129 
09:10	48.3	48.3	48.3	96	47.2	0	1	90	0.00	30.129 
09:15	49.4	49.4	49.4	96	48.3	0	3	90	0.00	30.130 
09:20	50.1	50.1	50.1	96	49.0	0	3	90	0.00	30.130 
09:25	50.4	50.4	50.4	96	49.3	0	2	90	0.00	30.130 
09:30	50.8	50.8	50.8	96	49.7	1	2	90	0.00	30.126 
09:35	51.1	51.1	51.1	96	50.0	1	3	90	0.00	30.126 
09:40	51.7	51.7	51.7	95	50.3	1	3	90	0.00	30.126 
09:45	52.3	52.3	52.3	95	50.9	1	4	90	0.00	30.126 
09:50	52.8	52.8	52.8	94	51.1	1	3	90	0.00	30.126 
09:55	53.3	53.3	53.3	93	51.3	0	2	90	0.00	30.126 
10:00	53.8	53.8	53.8	93	51.8	1	3	90	0.00	30.125 
10:05	54.4	54.4	54.4	92	52.1	0	2	90	0.00	30.125 
10:10	54.8	54.8	54.8	91	52.2	1	3	90	0.00	30.125 
10:15	55.6	55.6	55.6	90	52.7	1	4	90	0.00	30.126 
10:20	56.5	56.5	56.5	88	53.0	0	3	90	0.00	30.126 
10:25	56.9	56.9	56.9	86	52.8	1	4	90	0.00	30.126 
10:30	57.5	57.5	57.5	86	53.3	1	3	90	0.00	30.123 
10:35	58.0	58.0	58.0	84	53.2	1	3	90	0.00	30.123 
10:40	58.7	58.7	58.7	83	53.5	0	2	90	0.00	30.123 
10:45	59.6	59.6	59.6	81	53.8	0	2	90	0.00	30.119 
10:50	60.1	60.1	60.1	78	53.2	1	3	90	0.00	30.119 
10:55	60.7	60.7	60.7	76	53.1	1	3	90	0.00	30.119 
11:00	61.0	61.0	61.0	74	52.6	1	3	90	0.00	30.111 
11:05	61.6	61.6	61.6	74	53.2	0	3	90	0.00	30.111 
11:10	62.1	62.1	62.1	73	53.3	1	2	90	0.00	30.111 
11:15	62.3	62.3	62.3	70	52.4	2	6	90	0.00	30.109 
11:20	62.4	62.4	62.4	70	52.5	2	4	90	0.00	30.109 
11:25	62.9	62.9	62.9	67	51.8	1	4	90	0.00	30.109 
11:30	63.2	63.2	63.2	66	51.6	1	5	112	0.00	30.108 
11:35	63.9	63.9	63.9	65	51.9	1	3	112	0.00	30.108 
11:40	64.2	64.2	64.2	63	51.3	1	4	112	0.00	30.108 
11:45	64.7	64.7	64.7	63	51.8	1	3	112	0.00	30.103 
11:50	65.2	65.2	65.2	61	51.4	1	3	112	0.00	30.103 
11:55	65.3	65.3	65.3	61	51.5	2	4	112	0.00	30.103 
12:00	65.6	65.6	65.6	62	52.2	1	4	112	0.00	30.100 
12:05	66.1	66.1	66.1	61	52.3	0	2	112	0.00	30.100 
12:10	66.6	66.6	66.6	58	51.4	2	4	112	0.00	30.100 
12:15	66.8	66.8	66.8	58	51.5	2	5	112	0.00	30.095 
12:20	66.9	66.9	66.9	56	50.7	1	4	112	0.00	30.095 
12:25	67.3	67.3	67.3	56	51.1	1	4	112	0.00	30.095 
12:30	67.4	67.4	67.4	55	50.7	2	4	112	0.00	30.092 
12:35	67.8	67.8	67.8	54	50.5	1	4	112	0.00	30.092 
12:40	68.1	68.1	68.1	54	50.8	1	4	112	0.00	30.092 
12:45	68.4	68.4	68.4	52	50.1	2	5	90	0.00	30.087 
12:50	68.8	68.8	68.8	51	49.9	1	3	90	0.00	30.087 
12:55	69.3	69.3	69.3	49	49.3	1	3	90	0.00	30.087 
13:00	69.8	69.8	69.8	48	49.2	0	2	90	0.00	30.082 
13:05	70.4	70.4	70.4	45	48.0	0	3	90	0.00	30.082 
13:10	70.8	70.8	70.8	44	47.8	1	3	90	0.00	30.082 
13:15	70.8	70.8	70.8	45	48.4	1	4	90	0.00	30.075 
13:20	71.1	71.1	71.1	42	46.8	0	2	112	0.00	30.075 
13:25	71.6	71.6	71.6	42	47.3	1	3	112	0.00	30.075 
13:30	71.5	71.5	71.5	41	46.5	2	5	112	0.00	30.071 
13:35	71.3	71.3	71.3	42	47.0	1	4	112	0.00	30.071 
13:40	71.3	71.3	71.3	43	47.6	1	4	112	0.00	30.071 
13:45	71.5	71.5	71.5	41	46.5	1	4	112	0.00	30.068 
13:50	71.8	71.8	71.8	44	48.7	1	3	112	0.00	30.068 
13:55	71.8	71.8	71.8	40	46.2	1	3	112	0.00	30.068 
14:00	71.6	71.6	71.6	40	46.0	2	5	112	0.00	30.064 
14:05	71.8	71.8	71.8	42	47.5	1	3	112	0.00	30.064 
14:10	72.0	72.0	72.0	40	46.3	0	2	112	0.00	30.064 
14:15	72.3	72.3	72.3	36	43.8	0	2	112	0.00	30.062 
14:20	72.5	72.5	72.5	38	45.4	0	3	112	0.00	30.062 
14:25	73.0	73.0	73.0	36	44.5	0	3	112	0.00	30.062 
14:30	73.2	73.2	73.2	38	46.1	1	4	135	0.00	30.054 
14:35	73.0	73.0	73.0	37	45.2	1	5	135	0.00	30.054 
14:40	73.0	73.0	73.0	36	44.5	1	2	112	0.00	30.054 
14:45	73.0	73.0	73.0	39	46.6	1	3	112	0.00	30.050 
14:50	73.0	73.0	73.0	38	45.9	0	2	112	0.00	30.050 
14:55	73.2	73.2	73.2	36	44.6	0	2	112	0.00	30.050 
15:00	73.3	73.3	73.3	36	44.7	1	4	112	0.00	30.042 
15:05	73.5	73.5	73.5	36	44.9	0	1	112	0.00	30.042 
15:10	73.5	73.5	73.5	36	44.9	1	3	112	0.00	30.042 
15:15	73.7	73.7	73.7	34	43.6	2	4	112	0.00	30.038 
15:20	73.7	73.7	73.7	35	44.3	1	6	135	0.00	30.038 
15:25	73.7	73.7	73.7	34	43.6	1	3	68	0.00	30.038 
15:30	73.9	73.9	73.9	33	43.0	0	2	90	0.00	30.037 
15:35	73.9	73.9	73.9	35	44.5	0	3	90	0.00	30.037 
15:40	74.0	74.0	74.0	33	43.1	1	3	90	0.00	30.037 
15:45	74.2	74.2	74.2	33	43.2	0	2	90	0.00	30.037 
15:50	74.4	74.4	74.4	35	44.9	0	2	90	0.00	30.037 
15:55	74.6	74.6	74.6	36	45.9	0	3	90	0.00	30.037 
16:00	74.4	74.4	74.4	35	44.9	1	3	90	0.00	30.035 
16:05	74.4	74.4	74.4	35	44.9	1	3	90	0.00	30.035 
16:10	74.6	74.6	74.6	36	45.9	2	5	90	0.00	30.035 
16:15	74.6	74.6	74.6	35	45.1	1	3	90	0.00	30.030 
16:20	74.6	74.6	74.6	34	44.4	1	4	90	0.00	30.030 
16:25	74.6	74.6	74.6	35	45.1	0	3	90	0.00	30.030 
16:30	74.6	74.6	74.6	35	45.1	1	3	90	0.00	30.029 
16:35	74.6	74.6	74.6	38	47.3	0	2	90	0.00	30.029 
16:40	74.6	74.6	74.6	35	45.1	1	3	90	0.00	30.029 
16:45	74.6	74.6	74.6	36	45.9	0	2	112	0.00	30.030 
16:50	74.6	74.6	74.6	35	45.1	1	2	112	0.00	30.030 
16:55	74.6	74.6	74.6	34	44.4	1	4	112	0.00	30.030 
17:00	74.4	74.4	74.4	35	44.9	0	2	112	0.00	30.027 
17:05	74.4	74.4	74.4	35	44.9	0	0	---	0.00	30.027 
17:10	74.4	74.4	74.4	38	47.1	0	1	112	0.00	30.027 
17:15	74.4	74.4	74.4	38	47.1	1	3	112	0.00	30.025 
17:20	74.6	74.6	74.6	36	45.9	1	2	112	0.00	30.025 
17:25	74.4	74.4	74.4	36	45.7	0	3	112	0.00	30.025 
17:30	74.4	74.4	74.4	37	46.4	0	3	112	0.00	30.023 
17:35	74.2	74.2	74.2	37	46.2	1	4	112	0.00	30.023 
17:40	74.0	74.0	74.0	37	46.1	1	3	112	0.00	30.023 
17:45	74.0	74.0	74.0	37	46.1	0	2	112	0.00	30.024 
17:50	73.9	73.9	73.9	38	46.7	0	2	112	0.00	30.024 
17:55	73.7	73.7	73.7	38	46.5	0	4	112	0.00	30.024 
18:00	73.5	73.5	73.5	38	46.3	0	4	112	0.00	30.024 
18:05	73.3	73.3	73.3	38	46.1	0	2	112	0.00	30.024 
18:10	73.2	73.2	73.2	39	46.7	0	2	112	0.00	30.024 
18:15	73.0	73.0	73.0	39	46.6	0	3	112	0.00	30.024 
18:20	72.8	72.8	72.8	39	46.4	0	3	112	0.00	30.024 
18:25	72.7	72.7	72.7	41	47.6	0	1	112	0.00	30.024 
18:30	72.5	72.5	72.5	41	47.4	0	1	112	0.00	30.024 
18:35	72.0	72.0	72.0	43	48.3	0	2	112	0.00	30.024 
18:40	71.6	71.6	71.6	43	47.9	0	1	112	0.00	30.024 
18:45	71.1	71.1	71.1	44	48.1	0	0	---	0.00	30.028 
18:50	70.6	70.6	70.6	46	48.8	0	0	---	0.00	30.028 
18:55	69.9	69.9	69.9	46	48.2	0	0	---	0.00	30.028 
19:00	69.3	69.3	69.3	46	47.6	0	0	---	0.00	30.031 
19:05	68.6	68.6	68.6	47	47.6	0	0	---	0.00	30.031 
19:10	68.1	68.1	68.1	47	47.1	0	0	---	0.00	30.031 
19:15	67.4	67.4	67.4	48	47.0	0	0	---	0.00	30.035 
19:20	66.8	66.8	66.8	49	47.0	0	0	---	0.00	30.035 
19:25	66.1	66.1	66.1	50	46.9	0	0	---	0.00	30.035 
19:30	65.6	65.6	65.6	52	47.5	0	0	---	0.00	30.033 
19:35	65.0	65.0	65.0	54	47.9	0	0	---	0.00	30.033 
19:40	64.5	64.5	64.5	54	47.5	0	0	---	0.00	30.033 
19:45	63.9	63.9	63.9	55	47.4	0	0	---	0.00	30.035 
19:50	63.4	63.4	63.4	56	47.4	0	0	---	0.00	30.035 
19:55	62.9	62.9	62.9	57	47.4	0	0	---	0.00	30.035 
20:00	62.4	62.4	62.4	58	47.4	0	0	---	0.00	30.041 
20:05	62.0	62.0	62.0	59	47.5	0	0	---	0.00	30.041 
20:10	61.5	61.5	61.5	60	47.5	0	0	---	0.00	30.041 
20:15	61.0	61.0	61.0	60	47.0	0	0	---	0.00	30.040 
20:20	60.5	60.5	60.5	62	47.4	0	0	---	0.00	30.040 
20:25	60.2	60.2	60.2	62	47.1	0	0	---	0.00	30.040 
20:30	59.9	59.9	59.9	62	46.8	0	0	---	0.00	30.046 
20:35	59.6	59.6	59.6	63	47.0	0	0	---	0.00	30.046 
20:40	59.3	59.3	59.3	63	46.7	0	0	---	0.00	30.046 
20:45	59.0	59.0	59.0	65	47.2	0	0	---	0.00	30.047 
20:50	58.7	58.7	58.7	66	47.4	0	0	---	0.00	30.047 
20:55	58.6	58.6	58.6	67	47.7	0	0	---	0.00	30.047 
21:00	58.3	58.3	58.3	67	47.4	0	0	---	0.00	30.049 
21:05	58.0	58.0	58.0	68	47.5	0	0	---	0.00	30.049 
21:10	57.6	57.6	57.6	69	47.5	0	0	---	0.00	30.049 
21:15	57.5	57.5	57.5	70	47.8	0	1	112	0.00	30.044 
21:20	57.6	57.6	57.6	69	47.5	0	2	112	0.00	30.044 
21:25	58.4	58.4	58.4	66	47.1	0	2	112	0.00	30.044 
21:30	59.6	59.6	59.6	65	47.8	1	3	112	0.00	30.045 
21:35	60.7	60.7	60.7	65	48.9	1	5	90	0.00	30.045 
21:40	61.3	61.3	61.3	65	49.4	1	4	90	0.00	30.045 
21:45	61.6	61.6	61.6	67	50.5	1	4	90	0.00	30.044 
21:50	61.6	61.6	61.6	69	51.3	1	4	90	0.00	30.044 
21:55	61.5	61.5	61.5	70	51.6	1	3	68	0.00	30.044 
22:00	61.3	61.3	61.3	72	52.2	1	2	68	0.00	30.045 
22:05	61.2	61.2	61.2	74	52.8	1	2	68	0.00	30.045 
22:10	60.9	60.9	60.9	76	53.3	1	2	68	0.00	30.045 
22:15	60.7	60.7	60.7	76	53.1	1	3	68	0.00	30.035 
22:20	60.5	60.5	60.5	77	53.2	1	2	68	0.00	30.035 
22:25	60.4	60.4	60.4	77	53.2	1	3	68	0.00	30.035 
22:30	60.2	60.2	60.2	77	53.0	1	4	68	0.00	30.036 
22:35	60.2	60.2	60.2	77	53.0	1	3	68	0.00	30.036 
22:40	59.9	59.9	59.9	78	53.0	1	2	68	0.00	30.036 
22:45	59.8	59.8	59.8	78	52.9	1	3	68	0.00	30.035 
22:50	59.6	59.6	59.6	78	52.7	1	2	68	0.00	30.035 
22:55	59.5	59.5	59.5	78	52.6	0	2	68	0.00	30.035 
23:00	59.5	59.5	59.5	78	52.6	1	3	68	0.00	30.038 
23:05	59.3	59.3	59.3	79	52.8	1	2	68	0.00	30.038 
23:10	59.2	59.2	59.2	79	52.7	1	2	68	0.00	30.038 
23:15	59.0	59.0	59.0	79	52.5	1	4	68	0.00	30.040 
23:20	58.9	58.9	58.9	80	52.7	1	3	68	0.00	30.040 
23:25	58.7	58.7	58.7	80	52.5	1	3	68	0.00	30.040 
23:30	58.4	58.4	58.4	81	52.6	1	3	68	0.00	30.042 
23:35	58.3	58.3	58.3	81	52.5	0	2	68	0.00	30.042 
23:40	58.1	58.1	58.1	81	52.3	0	2	68	0.00	30.042 
23:45	58.0	58.0	58.0	81	52.2	0	1	68	0.00	30.042 
23:50	57.8	57.8	57.8	82	52.3	0	2	68	0.00	30.042 
23:55	57.5	57.5	57.5	83	52.4	0	2	68	0.00	30.042 

CoCoRaHS
IN-AL-39
A2 Web Hosting
Creative Commons License
GoDaddy
search engine by freefind advanced

loaded 2018-11-15 13:36:01 • last modified 2010-11-18 10:43:29
Privacy PolicyDisclaimer
• wx.awcolley.com is powered by PmWiki v.2002016 •
• all content (unless otherwise noted) © 2018 A W Colley